Aeroporto :
LOGIN :

Iscrizione | Disclaimer

   EN    FR    IT 

 










Sommario :    VFR   VFR Marginale   IFR   IFR Intensivo   IFR Molto Intensivo
Visibilità : 
Base nubi : 
>= 8 km
>= 3000ft
5 / 8 km
1000 / 3000 ft
1500m / 5 km
500 / 1000 ft
800 / 1500m
200 / 500 ft
< 800m
< 200 ft
Simboli :   Temporali  Nebbia  Neve Forte  Precipitazioni Forti  Vento > 20 kt
SIGMETs :   Varie  Temporali  Ghiacco  Turbolenza  Onda orograficha  Ceneri Vulcaniche






- Altitudine del aeroporto : 885 ft
- Codice IATA : BAS


LFSB - Bale-Mulhouse

ULTIMO METAR :
  • 292130Z 27003KT 9999 BKN033 BKN050 03/01 Q1019 NOSIG

METARs OBSOLETI :
  • 292100Z VRB02KT 9999 BKN033 04/02 Q1019 NOSIG
  • 292030Z VRB03KT 9999 FEW030 SCT063 05/02 Q1019 NOSIG
  • 292000Z 24006KT CAVOK 05/02 Q1018 NOSIG
  • 291930Z 23005KT 9999 FEW033 BKN063 BKN210 05/03 Q1018 NOSIG
  • 291900Z 24004KT 9999 FEW030 BKN063 BKN210 06/03 Q1019 NOSIG

TAF TAF LFSB
Valido dal 29 a 18 ore il 30 a 18 ore UTC


291700Z 2918/3018 26006KT 9999 SCT040 BKN060
FM300600 15006KT CAVOK
BECMG 3015/3017 -RA BKN040
Met : +33 3 89 90 31 11



MetMap, La meteo Aeronautica in un colpo d'occhio ! - Copyright ORBIFLY Dicembre 2007 - Disclaimer

ORBIFLY MET'MAP TEAM :

Programmazione e sviluppo : Alexandra Zaïnal
Concezione : Baudouin d'Aumeries
Aiuto per la programmazione : Marc-Olivier Méhu
Supporto tecnico e logistico : Manuel Goepfert
Aiuto per la traduzione : Arnaldo La Scala

Contatto : metmap@orbifly.com




FONTI E CREDITI :

   NOAA